Time;durP1;ratioP1;P1;durP2;ratioP2;P2;SDS_P1;SDS_P2;PMS_P1;PMS_P2;Temp;Humidity;BMP_temperature;BMP_pressure;BME280_temperature;BME280_humidity;BME280_pressure;Samples;Min_cycle;Max_cycle;Signal;HPM_P1;HPM_P2
2021/06/08 00:01:34;;;;;;;9.17;3.87;;;16.50;84.50;;;;;;4439498;32;20201;-75
2021/06/08 00:04:01;;;;;;;7.47;4.30;;;16.40;84.70;;;;;;4440395;32;20146;-75
2021/06/08 00:06:28;;;;;;;8.97;4.20;;;16.40;84.80;;;;;;4439393;32;20414;-75
2021/06/08 00:08:55;;;;;;;13.13;4.50;;;16.30;85.30;;;;;;4439457;32;20138;-75
2021/06/08 00:11:22;;;;;;;9.27;4.03;;;16.30;86.50;;;;;;4439511;32;20236;-75
2021/06/08 00:13:50;;;;;;;6.60;4.27;;;16.30;87.50;;;;;;4440864;32;20139;-75
2021/06/08 00:16:17;;;;;;;7.30;4.17;;;16.20;88.40;;;;;;4439398;32;20164;-75
2021/06/08 00:18:44;;;;;;;9.07;4.40;;;16.20;88.70;;;;;;4439388;32;20199;-75
2021/06/08 00:21:11;;;;;;;9.60;4.50;;;16.20;89.30;;;;;;4439353;32;20143;-75
2021/06/08 00:23:38;;;;;;;8.63;4.20;;;16.10;89.60;;;;;;4441520;32;20150;-75
2021/06/08 00:26:05;;;;;;;8.27;3.93;;;16.10;89.70;;;;;;4442005;32;20359;-75
2021/06/08 00:28:32;;;;;;;7.93;4.50;;;16.00;89.60;;;;;;4442506;32;20257;-75
2021/06/08 00:30:59;;;;;;;7.67;4.30;;;16.00;89.60;;;;;;4442066;32;20134;-75
2021/06/08 00:33:26;;;;;;;8.23;4.37;;;16.00;90.30;;;;;;4442791;32;20192;-75
2021/06/08 00:35:53;;;;;;;9.07;4.27;;;16.00;90.60;;;;;;4443536;32;20163;-75
2021/06/08 00:38:20;;;;;;;10.53;4.63;;;15.90;90.30;;;;;;4441848;32;20138;-75
2021/06/08 00:40:47;;;;;;;6.33;4.00;;;15.90;90.70;;;;;;4441947;32;20168;-75
2021/06/08 00:43:14;;;;;;;6.23;3.97;;;15.90;91.20;;;;;;4442115;32;20195;-74
2021/06/08 00:45:41;;;;;;;6.63;4.20;;;15.80;91.20;;;;;;4441862;32;20198;-75
2021/06/08 00:48:08;;;;;;;6.73;4.10;;;15.80;91.50;;;;;;4442274;32;20146;-75
2021/06/08 00:50:35;;;;;;;8.63;4.33;;;15.80;91.60;;;;;;4442088;32;20195;-75
2021/06/08 00:53:02;;;;;;;9.90;4.50;;;15.70;91.80;;;;;;4441802;32;20241;-75
2021/06/08 00:55:29;;;;;;;8.63;4.53;;;15.60;91.80;;;;;;4441973;32;20150;-74
2021/06/08 00:57:56;;;;;;;7.97;4.50;;;15.60;92.20;;;;;;4441681;32;20143;-75
2021/06/08 01:00:24;;;;;;;8.90;4.63;;;15.60;92.80;;;;;;4440773;32;20206;-75
2021/06/08 01:02:51;;;;;;;7.17;4.77;;;15.40;93.20;;;;;;4441600;32;20387;-74
2021/06/08 01:05:18;;;;;;;8.87;4.73;;;15.50;93.80;;;;;;4443109;32;20150;-74
2021/06/08 01:07:46;;;;;;;6.77;5.00;;;15.50;93.50;;;;;;4441533;32;20511;-74
2021/06/08 01:10:13;;;;;;;9.90;4.80;;;15.50;93.80;;;;;;4441846;32;20131;-74
2021/06/08 01:12:41;;;;;;;12.13;5.17;;;15.50;94.30;;;;;;4441421;32;20200;-74
2021/06/08 01:15:09;;;;;;;8.10;4.90;;;15.40;94.70;;;;;;4441680;32;20139;-74
2021/06/08 01:17:36;;;;;;;8.03;4.60;;;15.40;94.80;;;;;;4442875;32;20452;-74
2021/06/08 01:20:04;;;;;;;9.93;4.90;;;15.40;95.80;;;;;;4441349;32;20158;-74
2021/06/08 01:22:32;;;;;;;11.33;5.23;;;15.40;95.80;;;;;;4442367;32;20165;-74
2021/06/08 01:24:59;;;;;;;8.17;4.80;;;15.40;96.30;;;;;;4441290;32;20150;-74
2021/06/08 01:27:26;;;;;;;10.90;4.80;;;15.40;96.50;;;;;;4441166;32;20242;-74
2021/06/08 01:29:56;;;;;;;7.50;4.63;;;15.30;96.40;;;;;;4441494;32;20209;-75
2021/06/08 01:32:26;;;;;;;6.77;4.60;;;15.30;97.00;;;;;;4441384;32;20200;-74
2021/06/08 01:34:57;;;;;;;10.10;5.00;;;15.20;97.50;;;;;;4441487;32;20168;-75
2021/06/08 01:37:24;;;;;;;9.97;5.73;;;15.20;97.80;;;;;;4441157;32;20158;-74
2021/06/08 01:39:53;;;;;;;9.27;5.30;;;15.10;98.00;;;;;;4442216;32;20146;-74
2021/06/08 01:42:20;;;;;;;9.07;5.27;;;15.10;98.50;;;;;;4441989;32;20139;-75
2021/06/08 01:44:47;;;;;;;10.87;5.67;;;15.00;99.00;;;;;;4441235;32;20196;-74
2021/06/08 01:47:14;;;;;;;8.60;5.20;;;15.00;99.00;;;;;;4440844;32;20199;-74
2021/06/08 01:49:42;;;;;;;8.00;5.20;;;15.00;99.60;;;;;;4440932;32;20407;-75
2021/06/08 01:52:22;;;;;;;10.17;5.37;;;15.00;99.90;;;;;;4440871;32;20185;-74
2021/06/08 01:54:57;;;;;;;11.93;5.60;;;14.90;99.90;;;;;;4441676;32;20131;-75
2021/06/08 01:57:52;;;;;;;9.60;5.30;;;15.00;99.90;;;;;;4440852;32;20138;-74
2021/06/08 02:00:56;;;;;;;8.70;5.47;;;14.90;99.90;;;;;;4440727;32;20200;-75
2021/06/08 02:03:32;;;;;;;8.67;5.40;;;14.90;99.90;;;;;;4440711;32;20242;-75
2021/06/08 02:06:15;;;;;;;11.10;5.57;;;14.90;99.90;;;;;;4440662;32;20183;-75
2021/06/08 02:09:01;;;;;;;11.40;5.60;;;14.80;99.90;;;;;;4440328;32;20157;-75
2021/06/08 02:11:43;;;;;;;10.43;5.77;;;14.80;99.90;;;;;;4442621;32;20143;-75
2021/06/08 02:14:39;;;;;;;12.37;5.83;;;14.80;99.90;;;;;;4442060;32;20143;-75
2021/06/08 02:17:16;;;;;;;10.10;5.37;;;14.80;99.90;;;;;;4440541;32;20142;-75
2021/06/08 02:19:50;;;;;;;10.50;5.93;;;14.80;99.90;;;;;;4441966;32;20268;-75
2021/06/08 02:22:20;;;;;;;13.40;5.90;;;14.80;99.90;;;;;;4442262;32;20151;-75
2021/06/08 02:24:48;;;;;;;11.97;5.77;;;14.80;99.90;;;;;;4441859;32;20191;-75
2021/06/08 02:27:20;;;;;;;11.07;5.53;;;14.80;99.90;;;;;;4439784;32;20158;-75
2021/06/08 02:29:50;;;;;;;10.73;5.50;;;14.80;99.90;;;;;;4440462;32;20147;-75
2021/06/08 02:32:19;;;;;;;14.20;6.23;;;14.70;99.90;;;;;;4437121;32;20488;-75
2021/06/08 02:34:47;;;;;;;10.20;5.30;;;14.70;99.90;;;;;;4440264;32;20138;-75
2021/06/08 02:37:16;;;;;;;10.37;5.53;;;14.70;99.90;;;;;;4440780;32;20212;-75
2021/06/08 02:39:44;;;;;;;11.67;5.67;;;14.70;99.90;;;;;;4439974;32;20154;-74
2021/06/08 02:42:12;;;;;;;11.43;5.43;;;14.70;99.90;;;;;;4440229;32;20173;-74
2021/06/08 02:44:42;;;;;;;10.03;5.83;;;14.60;99.90;;;;;;4440142;32;20134;-75
2021/06/08 02:47:09;;;;;;;11.93;5.70;;;14.50;99.90;;;;;;4441424;32;20184;-75
2021/06/08 02:49:36;;;;;;;10.20;6.40;;;14.50;99.90;;;;;;4439621;32;20206;-74
2021/06/08 02:52:04;;;;;;;12.67;5.50;;;14.60;99.90;;;;;;4440406;32;20138;-74
2021/06/08 02:54:32;;;;;;;10.53;6.03;;;14.60;99.90;;;;;;4441590;32;20221;-74
2021/06/08 02:57:00;;;;;;;9.10;5.93;;;14.60;99.90;;;;;;4441515;32;20426;-75
2021/06/08 02:59:29;;;;;;;8.33;5.67;;;14.60;99.90;;;;;;4440201;32;20151;-75
2021/06/08 03:01:58;;;;;;;9.53;5.60;;;14.70;99.90;;;;;;4440226;32;20162;-75
2021/06/08 03:04:33;;;;;;;9.87;5.60;;;14.70;99.90;;;;;;4440201;32;20139;-74
2021/06/08 03:07:04;;;;;;;12.23;6.10;;;14.80;99.90;;;;;;4440212;32;20137;-75
2021/06/08 03:09:36;;;;;;;9.80;6.00;;;14.70;99.90;;;;;;4440139;32;20154;-74
2021/06/08 03:12:10;;;;;;;12.37;6.73;;;14.70;99.90;;;;;;4439838;32;20139;-74
2021/06/08 03:14:39;;;;;;;11.03;6.13;;;14.70;99.90;;;;;;4439409;32;20383;-74
2021/06/08 03:17:07;;;;;;;9.90;6.07;;;14.70;99.90;;;;;;4441091;32;20202;-75
2021/06/08 03:19:38;;;;;;;9.60;6.33;;;14.70;99.90;;;;;;4424675;32;20146;-74
2021/06/08 03:22:15;;;;;;;11.33;6.23;;;14.80;99.90;;;;;;4435168;32;20219;-75
2021/06/08 03:24:46;;;;;;;12.70;6.53;;;14.90;99.90;;;;;;4439848;32;20245;-74
2021/06/08 03:27:13;;;;;;;12.20;6.60;;;15.00;99.90;;;;;;4440016;32;20499;-75
2021/06/08 03:29:41;;;;;;;10.37;6.50;;;15.10;99.90;;;;;;4441200;32;20191;-74
2021/06/08 03:32:09;;;;;;;12.20;6.80;;;15.20;99.90;;;;;;4441487;32;20158;-74
2021/06/08 03:34:39;;;;;;;10.80;6.47;;;15.20;99.90;;;;;;4439671;32;20135;-75
2021/06/08 03:37:07;;;;;;;11.03;5.97;;;15.30;99.90;;;;;;4440960;32;20154;-75
2021/06/08 03:39:36;;;;;;;11.10;6.33;;;15.30;99.90;;;;;;4439560;32;20154;-75
2021/06/08 03:42:04;;;;;;;11.13;6.30;;;15.40;99.90;;;;;;4438796;32;20190;-75
2021/06/08 03:44:34;;;;;;;13.43;6.30;;;15.40;99.90;;;;;;4439437;32;20499;-74
2021/06/08 03:47:02;;;;;;;11.87;7.07;;;15.40;99.90;;;;;;4439501;32;20151;-75
2021/06/08 03:49:29;;;;;;;13.57;6.67;;;15.50;99.90;;;;;;4439438;32;20134;-75
2021/06/08 03:51:56;;;;;;;12.17;6.70;;;15.50;99.90;;;;;;4438886;32;20217;-74
2021/06/08 03:54:23;;;;;;;12.70;6.90;;;15.50;99.90;;;;;;4439764;32;20194;-75
2021/06/08 03:56:53;;;;;;;10.40;6.50;;;15.60;99.90;;;;;;4438709;32;20138;-75
2021/06/08 03:59:24;;;;;;;11.37;6.90;;;15.70;99.90;;;;;;4442753;32;20206;-75
2021/06/08 04:01:52;;;;;;;10.43;6.47;;;15.80;99.90;;;;;;4444204;32;20210;-75
2021/06/08 04:04:20;;;;;;;10.73;6.60;;;15.90;99.90;;;;;;4442381;32;20211;-74
2021/06/08 04:06:48;;;;;;;13.53;6.97;;;16.00;99.90;;;;;;4442358;32;20160;-74
2021/06/08 04:09:16;;;;;;;14.40;7.10;;;16.00;99.90;;;;;;4442389;32;20142;-74
2021/06/08 04:11:48;;;;;;;13.80;7.00;;;16.10;99.90;;;;;;4442631;32;20150;-74
2021/06/08 04:14:15;;;;;;;12.57;6.30;;;16.10;99.90;;;;;;4443214;32;20503;-75
2021/06/08 04:16:43;;;;;;;11.97;6.77;;;16.10;99.90;;;;;;4442246;32;20190;-75
2021/06/08 04:19:11;;;;;;;14.13;7.37;;;16.30;99.90;;;;;;4442178;32;20161;-74
2021/06/08 04:21:38;;;;;;;11.13;6.57;;;16.40;99.90;;;;;;4442240;32;20196;-74
2021/06/08 04:24:06;;;;;;;13.80;7.00;;;16.50;99.90;;;;;;4442023;32;20235;-75
2021/06/08 04:26:34;;;;;;;10.13;6.17;;;16.60;99.90;;;;;;4442007;32;20162;-74
2021/06/08 04:29:01;;;;;;;10.27;6.90;;;16.70;99.90;;;;;;4443630;32;20165;-75
2021/06/08 04:31:28;;;;;;;9.63;6.43;;;16.80;99.90;;;;;;4442031;32;20139;-75
2021/06/08 04:33:55;;;;;;;10.67;6.37;;;16.90;99.90;;;;;;4441971;32;20138;-75
2021/06/08 04:36:24;;;;;;;9.53;6.20;;;17.00;99.90;;;;;;4441831;32;20138;-75
2021/06/08 04:38:55;;;;;;;14.67;6.77;;;17.10;99.90;;;;;;4441305;32;20170;-75
2021/06/08 04:41:22;;;;;;;9.13;5.97;;;17.20;99.90;;;;;;4441986;32;20169;-75
2021/06/08 04:43:49;;;;;;;11.97;6.03;;;17.20;99.90;;;;;;4441477;32;20143;-75
2021/06/08 04:46:16;;;;;;;8.80;5.53;;;17.40;99.90;;;;;;4441473;32;20176;-75
2021/06/08 04:48:44;;;;;;;9.70;6.03;;;17.50;99.90;;;;;;4441713;32;20231;-75
2021/06/08 04:51:11;;;;;;;9.80;5.83;;;17.50;99.90;;;;;;4442603;32;20173;-75
2021/06/08 04:53:39;;;;;;;9.17;5.63;;;17.50;99.90;;;;;;4441671;32;20287;-75
2021/06/08 04:56:06;;;;;;;9.83;6.00;;;17.70;99.90;;;;;;4441756;32;20191;-75
2021/06/08 04:58:35;;;;;;;11.13;5.70;;;17.80;99.90;;;;;;4441684;32;20174;-75
2021/06/08 05:01:42;;;;;;;9.00;5.80;;;17.70;99.90;;;;;;4441611;32;20226;-75
2021/06/08 05:04:13;;;;;;;7.60;5.77;;;17.90;99.90;;;;;;4410624;32;20211;-74
2021/06/08 05:06:47;;;;;;;11.30;6.10;;;17.90;99.90;;;;;;4408964;32;20493;-74
2021/06/08 05:09:19;;;;;;;10.90;5.97;;;18.10;99.90;;;;;;4408493;32;20214;-74
2021/06/08 05:11:49;;;;;;;10.33;6.00;;;18.10;99.90;;;;;;4410601;32;20185;-75
2021/06/08 05:14:17;;;;;;;7.23;5.40;;;18.20;99.90;;;;;;4407826;32;20480;-75
2021/06/08 05:16:46;;;;;;;11.13;5.83;;;18.20;99.90;;;;;;4408072;32;20427;-75
2021/06/08 05:19:14;;;;;;;10.53;5.93;;;18.30;99.90;;;;;;4408377;32;20189;-75
2021/06/08 05:21:43;;;;;;;9.87;5.70;;;18.40;99.90;;;;;;4408632;32;20187;-74
2021/06/08 05:24:11;;;;;;;9.30;5.77;;;18.40;99.90;;;;;;4408411;32;20147;-75
2021/06/08 05:26:40;;;;;;;9.27;6.10;;;18.50;99.90;;;;;;4407946;32;20171;-75
2021/06/08 05:29:08;;;;;;;8.90;5.97;;;18.50;99.90;;;;;;4408420;32;20193;-75
2021/06/08 05:31:37;;;;;;;11.37;6.07;;;18.60;99.90;;;;;;4410298;32;20170;-75
2021/06/08 05:34:04;;;;;;;8.07;5.73;;;18.80;99.90;;;;;;4409526;32;20203;-75
2021/06/08 05:36:33;;;;;;;11.10;5.90;;;18.90;99.90;;;;;;4440934;32;20142;-76
2021/06/08 05:39:00;;;;;;;10.43;5.63;;;19.00;99.90;;;;;;4440736;32;20177;-75
2021/06/08 05:41:28;;;;;;;8.17;5.53;;;19.00;99.90;;;;;;4439787;32;20142;-75
2021/06/08 05:43:55;;;;;;;9.00;5.87;;;19.10;99.90;;;;;;4440313;32;20150;-75
2021/06/08 05:46:25;;;;;;;8.33;5.73;;;19.10;99.90;;;;;;4440560;32;20364;-74
2021/06/08 05:48:52;;;;;;;9.60;5.50;;;19.30;99.90;;;;;;4440585;32;20150;-74
2021/06/08 05:51:21;;;;;;;11.27;5.83;;;19.30;99.90;;;;;;4441828;32;20155;-75
2021/06/08 05:53:50;;;;;;;10.23;5.93;;;19.40;99.90;;;;;;4440817;32;20426;-74
2021/06/08 05:56:18;;;;;;;10.83;5.83;;;19.40;99.90;;;;;;4440561;32;20204;-75
2021/06/08 05:58:45;;;;;;;12.00;5.83;;;19.60;99.90;;;;;;4441050;32;20202;-74
2021/06/08 06:01:12;;;;;;;11.33;5.80;;;19.70;99.90;;;;;;4439801;32;20218;-73
2021/06/08 06:03:40;;;;;;;10.60;5.80;;;19.70;99.90;;;;;;4437387;32;20174;-76
2021/06/08 06:06:08;;;;;;;7.67;5.43;;;19.70;99.90;;;;;;4440166;32;20195;-74
2021/06/08 06:08:35;;;;;;;12.17;5.90;;;19.80;99.90;;;;;;4440172;32;20165;-74
2021/06/08 06:11:06;;;;;;;9.37;5.73;;;20.00;99.90;;;;;;4442053;32;20164;-73
2021/06/08 06:13:46;;;;;;;12.53;5.70;;;20.10;99.90;;;;;;4441947;32;20177;-75
2021/06/08 06:16:15;;;;;;;10.07;5.97;;;20.10;99.90;;;;;;4442009;32;20460;-74
2021/06/08 06:18:43;;;;;;;8.40;5.33;;;20.10;99.90;;;;;;4440416;32;20150;-75
2021/06/08 06:21:12;;;;;;;9.80;5.77;;;20.10;99.90;;;;;;4439796;32;20442;-76
2021/06/08 06:23:39;;;;;;;8.40;5.47;;;20.20;99.90;;;;;;4440396;32;20188;-78
2021/06/08 06:26:06;;;;;;;8.43;5.53;;;20.20;99.90;;;;;;4441026;32;20187;-76
2021/06/08 06:28:34;;;;;;;8.77;5.73;;;20.30;99.90;;;;;;4440505;32;20421;-75
2021/06/08 06:31:07;;;;;;;9.17;5.40;;;20.50;99.90;;;;;;4437537;32;20201;-74
2021/06/08 06:33:34;;;;;;;9.60;5.80;;;20.70;99.90;;;;;;4438792;32;20501;-73
2021/06/08 06:36:03;;;;;;;7.70;5.23;;;20.90;99.90;;;;;;4437146;32;20193;-74
2021/06/08 06:38:31;;;;;;;9.77;5.67;;;20.90;99.90;;;;;;4437169;32;20429;-74
2021/06/08 06:41:03;;;;;;;7.20;5.40;;;21.00;99.90;;;;;;4436785;32;20580;-74
2021/06/08 06:43:33;;;;;;;8.80;5.20;;;21.00;99.90;;;;;;4438727;32;20142;-74
2021/06/08 06:46:00;;;;;;;9.17;5.30;;;21.20;99.90;;;;;;4439331;32;20185;-74
2021/06/08 06:48:27;;;;;;;8.03;5.90;;;21.30;99.90;;;;;;4436816;32;20154;-74
2021/06/08 06:50:55;;;;;;;8.07;5.37;;;21.50;99.90;;;;;;4437861;32;20147;-74
2021/06/08 06:53:22;;;;;;;9.95;5.62;;;21.60;99.90;;;;;;4436005;32;20176;-73
2021/06/08 06:55:51;;;;;;;7.70;5.43;;;21.60;99.90;;;;;;4437432;32;20353;-73
2021/06/08 06:58:23;;;;;;;8.53;5.73;;;21.60;99.90;;;;;;4436061;32;20158;-74
2021/06/08 07:00:52;;;;;;;8.83;5.53;;;21.70;99.90;;;;;;4437003;32;20158;-74
2021/06/08 07:03:28;;;;;;;9.57;5.50;;;21.90;99.90;;;;;;4437042;32;20166;-75
2021/06/08 07:05:56;;;;;;;12.03;5.80;;;22.00;99.90;;;;;;4439684;32;20456;-74
2021/06/08 07:08:24;;;;;;;8.63;5.60;;;22.00;99.70;;;;;;4441158;32;20191;-75
2021/06/08 07:10:52;;;;;;;10.07;5.93;;;22.00;98.70;;;;;;4439427;32;20491;-74
2021/06/08 07:13:21;;;;;;;9.70;4.87;;;22.20;99.40;;;;;;4439547;32;20143;-74
2021/06/08 07:15:52;;;;;;;9.83;5.63;;;22.30;99.60;;;;;;4438167;32;20368;-75
2021/06/08 07:18:20;;;;;;;7.57;5.55;;;22.40;99.30;;;;;;4439426;32;20202;-75
2021/06/08 07:20:47;;;;;;;9.40;5.80;;;22.60;98.00;;;;;;4439443;32;20151;-76
2021/06/08 07:23:19;;;;;;;9.10;5.73;;;22.70;96.60;;;;;;4439545;32;20411;-75
2021/06/08 07:25:48;;;;;;;8.40;5.70;;;22.70;96.60;;;;;;4439151;32;20480;-75
2021/06/08 07:28:17;;;;;;;9.77;5.67;;;22.80;96.60;;;;;;4439366;32;20154;-75
2021/06/08 07:30:45;;;;;;;8.93;5.37;;;22.70;95.90;;;;;;4439766;32;20240;-75
2021/06/08 07:33:18;;;;;;;8.10;5.53;;;22.90;95.80;;;;;;4445520;32;20150;-75
2021/06/08 07:36:48;;;;;;;9.25;5.62;;;23.00;96.10;;;;;;4459635;32;20192;-75
2021/06/08 07:39:49;;;;;;;8.98;6.03;;;23.00;94.90;;;;;;4425802;32;20184;-74
2021/06/08 07:42:21;;;;;;;8.25;4.95;;;23.10;95.50;;;;;;4431771;32;20150;-80
2021/06/08 07:45:02;;;;;;;7.30;5.00;;;23.20;96.10;;;;;;4434392;32;20204;-86
2021/06/08 07:47:31;;;;;;;9.20;5.20;;;23.30;95.00;;;;;;4436664;32;20184;-74
2021/06/08 07:50:04;;;;;;;10.43;5.37;;;23.50;94.50;;;;;;4434857;32;20139;-74
2021/06/08 07:52:32;;;;;;;7.57;5.12;;;23.60;93.60;;;;;;4442610;32;20150;-74
2021/06/08 07:54:59;;;;;;;13.52;5.82;;;23.70;93.90;;;;;;4441647;32;20209;-73
2021/06/08 07:57:26;;;;;;;8.93;5.35;;;23.70;92.00;;;;;;4442295;32;20483;-73
2021/06/08 08:00:09;;;;;;;12.02;5.37;;;23.80;91.10;;;;;;4442617;32;20483;-73
2021/06/08 08:02:37;;;;;;;10.93;5.55;;;23.70;91.70;;;;;;4447864;32;20180;-74
2021/06/08 08:05:09;;;;;;;11.07;5.57;;;23.80;91.80;;;;;;4459167;32;20218;-74
2021/06/08 08:07:38;;;;;;;10.00;5.05;;;24.00;91.50;;;;;;4458058;32;20171;-75
2021/06/08 08:10:05;;;;;;;11.70;5.25;;;24.10;91.30;;;;;;4450529;32;20281;-74
2021/06/08 08:12:40;;;;;;;6.68;5.00;;;24.10;91.40;;;;;;4443364;32;20199;-74
2021/06/08 08:15:10;;;;;;;7.05;5.35;;;24.20;90.10;;;;;;4442869;32;20172;-74
2021/06/08 08:17:38;;;;;;;8.93;5.53;;;24.30;90.70;;;;;;4441931;32;20476;-74
2021/06/08 08:20:07;;;;;;;9.75;5.18;;;24.40;90.50;;;;;;4442172;32;20205;-75
2021/06/08 08:22:35;;;;;;;11.25;5.50;;;24.60;90.30;;;;;;4442909;32;20250;-75
2021/06/08 08:25:04;;;;;;;9.55;4.28;;;25.40;87.00;;;;;;4441544;32;20189;-74
2021/06/08 08:27:31;;;;;;;8.75;4.82;;;26.00;79.90;;;;;;4441620;32;20233;-74
2021/06/08 08:29:58;;;;;;;7.03;4.47;;;26.80;77.50;;;;;;4441614;32;20181;-75
2021/06/08 08:32:25;;;;;;;7.50;4.35;;;27.20;72.10;;;;;;4442774;32;20177;-74
2021/06/08 08:34:52;;;;;;;6.95;4.30;;;27.70;70.00;;;;;;4439312;32;20552;-75
2021/06/08 08:37:19;;;;;;;6.43;4.32;;;28.10;68.50;;;;;;4440574;32;20230;-75
2021/06/08 08:39:48;;;;;;;8.32;4.65;;;28.70;65.80;;;;;;4441862;32;20171;-75
2021/06/08 08:42:20;;;;;;;5.97;4.12;;;29.10;65.30;;;;;;4441463;32;20154;-74
2021/06/08 08:44:48;;;;;;;6.82;4.40;;;29.30;62.30;;;;;;4440775;32;20155;-74
2021/06/08 08:47:15;;;;;;;10.25;4.72;;;29.30;60.30;;;;;;4441444;32;20546;-74
2021/06/08 08:49:42;;;;;;;8.95;4.60;;;29.60;60.00;;;;;;4441250;32;20154;-74
2021/06/08 08:52:11;;;;;;;9.05;4.50;;;30.00;58.10;;;;;;4442709;32;20170;-75
2021/06/08 08:54:39;;;;;;;8.27;4.70;;;30.10;58.20;;;;;;4440691;32;20579;-74
2021/06/08 08:57:06;;;;;;;9.07;4.80;;;30.30;57.10;;;;;;4441074;32;20213;-74
2021/06/08 08:59:33;;;;;;;7.82;4.78;;;30.00;56.90;;;;;;4441162;32;20173;-74
2021/06/08 09:02:01;;;;;;;10.13;4.35;;;29.90;58.30;;;;;;4440866;32;20146;-74
2021/06/08 09:04:30;;;;;;;9.60;4.30;;;29.70;57.40;;;;;;4440669;32;20484;-72
2021/06/08 09:06:57;;;;;;;7.62;4.80;;;29.90;56.70;;;;;;4437742;32;20154;-73
2021/06/08 09:09:24;;;;;;;8.80;4.50;;;30.10;56.40;;;;;;4440280;32;20248;-74
2021/06/08 09:11:51;;;;;;;12.70;4.72;;;30.30;55.70;;;;;;4442112;32;20147;-73
2021/06/08 09:14:18;;;;;;;8.60;4.60;;;30.50;55.90;;;;;;4440824;32;20173;-75
2021/06/08 09:16:46;;;;;;;46.03;7.85;;;30.80;55.30;;;;;;4440932;32;20169;-75
2021/06/08 09:19:13;;;;;;;17.35;6.47;;;31.10;55.00;;;;;;4441784;32;20215;-74
2021/06/08 09:21:44;;;;;;;28.45;7.47;;;31.30;54.30;;;;;;4439805;32;20184;-75
2021/06/08 09:24:14;;;;;;;12.57;5.70;;;31.10;53.10;;;;;;4438873;32;20484;-75
2021/06/08 09:26:59;;;;;;;30.48;7.45;;;30.90;54.20;;;;;;4437580;32;20166;-75
2021/06/08 09:29:36;;;;;;;27.77;5.80;;;31.00;53.10;;;;;;4438802;32;20159;-75
2021/06/08 09:32:27;;;;;;;42.85;8.35;;;31.10;52.40;;;;;;4431886;32;20214;-75
2021/06/08 09:35:02;;;;;;;24.83;7.65;;;31.40;53.70;;;;;;4367554;32;20510;-75
2021/06/08 09:37:37;;;;;;;9.27;4.80;;;31.70;51.80;;;;;;4376803;32;20450;-75
2021/06/08 09:40:15;;;;;;;20.77;5.97;;;31.90;51.10;;;;;;4375167;32;20148;-74
2021/06/08 09:42:43;;;;;;;19.02;6.25;;;32.30;50.30;;;;;;4377571;32;20188;-74
2021/06/08 09:47:42;;;;;;;16.55;5.80;;;31.80;49.60;;;;;;4478375;31;20545;-76
2021/06/08 09:50:28;;;;;;;13.30;5.70;;;31.20;52.60;;;;;;4453041;32;20476;-74
2021/06/08 09:53:22;;;;;;;14.15;5.90;;;31.40;53.40;;;;;;4452891;32;20177;-76
2021/06/08 09:56:07;;;;;;;13.50;5.55;;;31.10;53.20;;;;;;4452922;32;20173;-73
2021/06/08 09:58:43;;;;;;;14.80;6.37;;;30.90;53.70;;;;;;4454380;32;20212;-74
2021/06/08 10:01:17;;;;;;;6.75;4.90;;;30.90;53.20;;;;;;4454860;32;20180;-74
2021/06/08 10:03:46;;;;;;;11.12;5.28;;;30.50;53.10;;;;;;4454213;32;20205;-75
2021/06/08 10:06:34;;;;;;;8.63;4.80;;;30.20;54.00;;;;;;4437713;32;20174;-76
2021/06/08 10:09:10;;;;;;;7.72;4.65;;;29.80;54.40;;;;;;4452316;32;20576;-73
2021/06/08 10:11:40;;;;;;;8.05;4.68;;;29.50;54.90;;;;;;4463667;32;20218;-73
2021/06/08 10:14:23;;;;;;;11.70;4.85;;;29.60;56.70;;;;;;4469408;32;20474;-73
2021/06/08 10:17:01;;;;;;;7.25;4.72;;;30.00;55.60;;;;;;4468412;32;20459;-73
2021/06/08 10:19:29;;;;;;;14.73;5.60;;;30.50;52.70;;;;;;4468049;32;20207;-74
2021/06/08 10:21:56;;;;;;;8.77;5.30;;;31.20;52.70;;;;;;4467798;32;20147;-74
2021/06/08 10:24:27;;;;;;;12.65;5.50;;;31.80;52.80;;;;;;4467636;32;20156;-76
2021/06/08 10:26:56;;;;;;;8.63;4.93;;;32.10;51.30;;;;;;4455063;32;20224;-73
2021/06/08 10:29:30;;;;;;;11.20;5.18;;;31.70;51.40;;;;;;4452221;32;20162;-75
2021/06/08 10:31:58;;;;;;;9.40;5.18;;;31.90;51.40;;;;;;4453617;32;20196;-74
2021/06/08 10:34:38;;;;;;;9.10;5.03;;;32.40;50.70;;;;;;4449768;32;20150;-75
2021/06/08 10:37:06;;;;;;;10.45;4.65;;;33.00;50.10;;;;;;4452110;32;20158;-76
2021/06/08 10:39:34;;;;;;;11.43;5.03;;;33.50;48.40;;;;;;4451909;32;20201;-74
2021/06/08 10:42:02;;;;;;;11.90;4.87;;;34.00;46.90;;;;;;4453344;32;20232;-73
2021/06/08 10:44:29;;;;;;;9.50;4.93;;;34.40;45.10;;;;;;4451419;32;20544;-74
2021/06/08 10:47:02;;;;;;;9.45;4.65;;;34.10;44.20;;;;;;4453936;32;20197;-74
2021/06/08 10:49:41;;;;;;;10.10;4.70;;;33.60;45.50;;;;;;4454826;32;20149;-74
2021/06/08 10:52:11;;;;;;;6.68;4.20;;;33.70;46.20;;;;;;4452771;32;20229;-73
2021/06/08 10:54:42;;;;;;;7.18;3.90;;;33.50;46.30;;;;;;4451190;32;20162;-76
2021/06/08 10:57:14;;;;;;;8.75;4.55;;;32.90;46.10;;;;;;4450537;32;20215;-75
2021/06/08 10:59:46;;;;;;;7.85;4.47;;;31.80;47.60;;;;;;4447907;32;20170;-75
2021/06/08 11:02:33;;;;;;;5.55;4.53;;;31.00;49.20;;;;;;4458405;32;20139;-75
2021/06/08 11:05:00;;;;;;;12.40;4.50;;;30.60;50.40;;;;;;4457007;32;20211;-76
2021/06/08 11:07:49;;;;;;;11.55;4.62;;;30.30;51.80;;;;;;4441790;32;20208;-74
2021/06/08 11:10:25;;;;;;;6.00;4.12;;;29.80;51.50;;;;;;4438538;32;20364;-68
2021/06/08 11:13:07;;;;;;;8.73;4.50;;;29.90;52.30;;;;;;4436771;32;20188;-74
2021/06/08 11:15:35;;;;;;;7.20;4.37;;;30.50;51.70;;;;;;4436522;32;20200;-74
2021/06/08 11:18:22;;;;;;;5.55;4.62;;;31.30;51.60;;;;;;4434032;32;20429;-74
2021/06/08 11:21:05;;;;;;;7.03;4.70;;;32.20;50.30;;;;;;4435877;32;20166;-74
2021/06/08 11:23:43;;;;;;;7.25;4.18;;;32.90;48.00;;;;;;4436188;32;20491;-74
2021/06/08 11:26:12;;;;;;;5.25;3.47;;;33.60;45.20;;;;;;4433581;32;20146;-74
2021/06/08 11:28:43;;;;;;;3.95;3.60;;;34.10;42.50;;;;;;4438392;32;20159;-74
2021/06/08 11:31:10;;;;;;;6.90;4.00;;;34.50;42.90;;;;;;4427810;32;20208;-74
2021/06/08 11:33:39;;;;;;;4.80;3.78;;;34.80;42.60;;;;;;4428459;32;20155;-75
2021/06/08 11:36:18;;;;;;;7.37;4.10;;;35.50;41.80;;;;;;4434748;32;20184;-73
2021/06/08 11:39:20;;;;;;;5.47;3.85;;;36.00;41.90;;;;;;4426187;32;20227;-74
2021/06/08 11:41:58;;;;;;;6.07;4.00;;;35.80;40.40;;;;;;4426119;32;20198;-75
2021/06/08 11:44:25;;;;;;;6.55;3.92;;;34.30;41.20;;;;;;4427045;32;20532;-74
2021/06/08 11:47:00;;;;;;;5.30;3.92;;;33.40;42.60;;;;;;4425574;32;20186;-74
2021/06/08 11:49:29;;;;;;;5.25;4.47;;;32.60;44.50;;;;;;4425489;32;20130;-75
2021/06/08 11:52:02;;;;;;;9.73;4.28;;;32.00;45.80;;;;;;4425577;32;20142;-73
2021/06/08 11:54:29;;;;;;;7.25;4.50;;;31.50;47.50;;;;;;4425671;32;20135;-74
2021/06/08 11:57:00;;;;;;;9.77;4.60;;;31.10;48.30;;;;;;4425551;32;20139;-73
2021/06/08 11:59:30;;;;;;;7.00;4.55;;;30.90;49.20;;;;;;4425413;32;20405;-73
2021/06/08 12:02:03;;;;;;;7.68;4.80;;;30.30;50.10;;;;;;4425680;32;20135;-73
2021/06/08 12:04:31;;;;;;;7.82;4.65;;;30.10;51.40;;;;;;4425737;32;20157;-73
2021/06/08 12:07:00;;;;;;;8.25;4.50;;;30.20;51.50;;;;;;4426575;32;20200;-73
2021/06/08 12:09:30;;;;;;;8.02;4.45;;;30.40;51.70;;;;;;4425998;32;20456;-74
2021/06/08 12:11:58;;;;;;;5.00;4.50;;;30.90;50.00;;;;;;4424964;32;20422;-74
2021/06/08 12:14:25;;;;;;;6.60;4.22;;;31.90;49.30;;;;;;4425364;32;20174;-74
2021/06/08 12:16:55;;;;;;;9.85;4.75;;;32.90;47.60;;;;;;4425138;32;20136;-74
2021/06/08 12:19:32;;;;;;;6.68;4.40;;;33.40;46.20;;;;;;4425069;32;20167;-74
2021/06/08 12:22:16;;;;;;;7.55;4.00;;;34.30;44.60;;;;;;4425181;32;20187;-75
2021/06/08 12:24:57;;;;;;;9.48;4.72;;;34.70;42.80;;;;;;4426866;32;20188;-74
2021/06/08 12:27:42;;;;;;;6.43;4.43;;;35.20;42.50;;;;;;4426566;32;20159;-74
2021/06/08 12:30:30;;;;;;;8.65;4.90;;;35.70;40.50;;;;;;4424915;32;20185;-74
2021/06/08 12:32:59;;;;;;;9.02;4.28;;;36.00;39.80;;;;;;4424908;32;20196;-74
2021/06/08 12:35:40;;;;;;;6.35;4.30;;;36.40;40.50;;;;;;4425296;32;20151;-74
2021/06/08 12:38:27;;;;;;;6.93;3.70;;;36.80;40.20;;;;;;4426467;32;20147;-74
2021/06/08 12:41:02;;;;;;;6.20;3.95;;;37.40;38.40;;;;;;4426357;32;20209;-73
2021/06/08 12:43:40;;;;;;;5.55;4.10;;;37.30;39.10;;;;;;4424778;32;20160;-73
2021/06/08 12:46:07;;;;;;;5.72;3.87;;;37.40;38.50;;;;;;4424546;32;20163;-73
2021/06/08 12:48:35;;;;;;;4.70;3.72;;;36.80;38.90;;;;;;4426068;32;20171;-74
2021/06/08 12:51:12;;;;;;;6.87;4.03;;;35.80;39.60;;;;;;4424479;32;20155;-73
2021/06/08 12:53:39;;;;;;;6.43;3.87;;;35.10;40.40;;;;;;4424651;32;20151;-75
2021/06/08 12:56:10;;;;;;;6.62;4.15;;;34.40;41.30;;;;;;4424715;32;20139;-73
2021/06/08 12:58:37;;;;;;;5.95;3.92;;;34.00;41.60;;;;;;4424385;32;20157;-74
2021/06/08 13:01:09;;;;;;;5.35;4.30;;;33.50;42.60;;;;;;4424628;32;20469;-74
2021/06/08 13:03:39;;;;;;;5.28;4.50;;;33.40;42.90;;;;;;4423656;32;20506;-74
2021/06/08 13:06:09;;;;;;;5.80;4.15;;;33.20;43.00;;;;;;4423611;32;20143;-75